Terminal Aerodrome Forecast
Issued by NWS

Current Version | Previous Version | Text Only | Print | Product List | Glossary On
Versions: 1 2 3 4 5 6 7 8 9 10 11 12 13
000
FTUS46 KEKA 280524
TAFUKI
TAF
KUKI 280524Z 2806/2906 00000KT P6SM BKN200
     FM281500 15003KT P6SM OVC120
     FM281700 15005KT P6SM OVC015
     FM282000 15005KT 3SM -RA BR OVC015=

USA.gov is the U.S. government's official web portal to all federal, state and local government web resources and services.